Crittenden, New York
Current Conditions -  °F | °C
As of 8:13 AM on Tuesday 21 Oct 2014 (Local Time) from KBUF Reporting Station
Haze Haze  
Wind Chill: 50°   Ceiling: 1800
Heat Index: 50°   Visibility: 2.5mi
Dew Point: 48°   Wind: 6mph
Humidity: 93%   Direction: 270°W
Pressure: 29.82"   Gusts: NA
Location:  42.94°N, 78.48°W
Report Text: KBUF 211213Z 27005KT 2 1/2SM BR FEW007 SCT013 OVC018 10/09 A2982 RMK AO2 VIS SW-NW-N 2 CIG 016V020 T01000089
Loading
Personal Weather Stations






























Interactive Weather Map
Tropical Storm Tracking
New forecast layout! Learn more

10-Day Weather Forecast

Advertisements
Track Severe Weather on mobile